createdAt,value
2022-11-30T00:01:44.298Z,37.28
2022-11-30T00:04:10.776Z,39.20
2022-11-30T00:06:37.208Z,42.25
2022-11-30T00:09:03.673Z,40.53
2022-11-30T00:11:30.235Z,38.47
2022-11-30T00:13:56.592Z,39.65
2022-11-30T00:16:23.170Z,39.35
2022-11-30T00:18:50.120Z,37.15
2022-11-30T00:21:16.943Z,39.10
2022-11-30T00:23:45.409Z,36.55
2022-11-30T00:26:14.875Z,36.90
2022-11-30T00:28:42.031Z,31.80
2022-11-30T00:31:11.519Z,36.63
2022-11-30T00:33:39.293Z,34.05
2022-11-30T00:36:12.469Z,33.88
2022-11-30T00:38:39.412Z,34.35
2022-11-30T00:41:07.522Z,37.50
2022-11-30T00:43:33.962Z,36.40
2022-11-30T00:46:00.673Z,32.08
2022-11-30T00:48:27.331Z,33.42
2022-11-30T00:50:54.010Z,33.95
2022-11-30T00:53:20.889Z,33.05
2022-11-30T00:55:48.439Z,34.97
2022-11-30T00:58:15.176Z,35.35
2022-11-30T01:00:42.127Z,31.13
2022-11-30T01:03:08.865Z,32.10
2022-11-30T01:05:35.987Z,33.15
2022-11-30T01:08:04.550Z,31.27
2022-11-30T01:10:31.204Z,32.28
2022-11-30T01:12:57.721Z,30.80
2022-11-30T01:15:24.129Z,38.22
2022-11-30T01:17:50.666Z,37.45
2022-11-30T01:20:17.486Z,40.08
2022-11-30T01:22:44.021Z,45.97
2022-11-30T01:25:10.412Z,36.75
2022-11-30T01:27:36.858Z,38.65
2022-11-30T01:30:04.088Z,37.17
2022-11-30T01:32:30.721Z,34.47
2022-11-30T01:34:57.147Z,33.72
2022-11-30T01:37:23.797Z,34.95
2022-11-30T01:39:50.367Z,33.58
2022-11-30T01:42:19.937Z,36.10
2022-11-30T01:44:56.940Z,36.78
2022-11-30T01:47:30.407Z,33.95
2022-11-30T01:50:08.988Z,37.22
2022-11-30T01:52:39.974Z,32.95
2022-11-30T01:58:02.022Z,29.02
2022-11-30T02:00:28.612Z,33.00
2022-11-30T02:03:07.309Z,37.05
2022-11-30T02:05:37.059Z,37.55
2022-11-30T02:08:04.859Z,40.30
2022-11-30T02:10:34.588Z,37.58
2022-11-30T02:13:24.044Z,44.92
2022-11-30T02:16:27.267Z,38.17
2022-11-30T02:19:05.003Z,34.10
2022-11-30T02:21:49.519Z,37.00
2022-11-30T02:24:34.159Z,34.10
2022-11-30T02:27:34.592Z,38.50
2022-11-30T02:30:19.788Z,36.38
2022-11-30T02:32:56.178Z,37.58
2022-11-30T02:35:27.755Z,36.58
2022-11-30T02:37:55.970Z,36.60
2022-11-30T02:40:22.358Z,33.45
2022-11-30T02:42:52.367Z,36.20
2022-11-30T02:45:44.331Z,38.63
2022-11-30T02:48:14.059Z,34.78
2022-11-30T02:50:55.570Z,33.28
2022-11-30T02:53:22.724Z,30.75
2022-11-30T02:55:49.078Z,29.15
2022-11-30T02:58:17.300Z,30.95
2022-11-30T03:00:43.679Z,30.05
2022-11-30T03:03:10.124Z,27.27
2022-11-30T03:05:36.688Z,28.52
2022-11-30T03:08:03.058Z,27.38
2022-11-30T03:10:29.516Z,30.67
2022-11-30T03:12:59.967Z,34.83
2022-11-30T03:15:26.907Z,30.73
2022-11-30T03:17:53.302Z,28.00
2022-11-30T03:20:19.732Z,27.17
2022-11-30T03:22:46.251Z,26.88
2022-11-30T03:25:12.694Z,26.05
2022-11-30T03:27:39.190Z,26.80
2022-11-30T03:30:06.509Z,25.98
2022-11-30T03:32:33.114Z,25.50
2022-11-30T03:34:59.763Z,25.55
2022-11-30T03:37:26.129Z,29.35
2022-11-30T03:39:57.936Z,29.33
2022-11-30T03:42:24.836Z,24.70
2022-11-30T03:44:51.362Z,31.33
2022-11-30T03:47:17.896Z,26.63
2022-11-30T03:49:44.351Z,30.17
2022-11-30T03:52:10.758Z,27.08
2022-11-30T03:54:37.171Z,26.55
2022-11-30T03:57:03.597Z,27.80
2022-11-30T03:59:30.174Z,30.05
2022-11-30T04:01:56.609Z,28.92
2022-11-30T04:04:22.970Z,24.40
2022-11-30T04:06:49.414Z,27.02
2022-11-30T04:09:15.807Z,22.42
2022-11-30T04:11:42.143Z,23.98
2022-11-30T04:14:08.819Z,22.15
2022-11-30T04:16:35.530Z,28.35
2022-11-30T04:19:02.011Z,23.58
2022-11-30T04:21:28.374Z,25.60
2022-11-30T04:23:54.796Z,28.23
2022-11-30T04:26:21.656Z,24.75
2022-11-30T04:28:48.181Z,23.48
2022-11-30T04:31:14.585Z,25.95
2022-11-30T04:33:41.185Z,24.38
2022-11-30T04:36:15.615Z,23.88
2022-11-30T04:38:41.982Z,21.77
2022-11-30T04:41:09.198Z,21.38
2022-11-30T04:43:35.952Z,21.33
2022-11-30T04:46:02.742Z,21.15
2022-11-30T04:48:29.233Z,21.88
2022-11-30T04:51:04.259Z,19.00
2022-11-30T04:53:30.603Z,18.20
2022-11-30T04:55:57.191Z,16.80
2022-11-30T04:58:23.758Z,20.35
2022-11-30T05:00:53.235Z,17.38
2022-11-30T05:03:19.662Z,18.52
2022-11-30T05:05:45.999Z,18.33
2022-11-30T05:08:12.479Z,18.45
2022-11-30T05:10:39.072Z,21.42
2022-11-30T05:13:05.678Z,16.45
2022-11-30T05:15:32.508Z,21.77
2022-11-30T05:18:00.329Z,24.55
2022-11-30T05:20:28.474Z,27.83
2022-11-30T05:22:54.979Z,25.13
2022-11-30T05:25:21.599Z,26.92
2022-11-30T05:27:47.917Z,27.60
2022-11-30T05:30:14.559Z,26.05
2022-11-30T05:32:41.206Z,31.08
2022-11-30T05:35:07.991Z,30.98
2022-11-30T05:37:34.433Z,32.75
2022-11-30T05:40:00.893Z,29.20
2022-11-30T05:42:27.347Z,31.55
2022-11-30T05:44:53.776Z,34.28
2022-11-30T05:47:20.175Z,38.20
2022-11-30T05:49:46.816Z,33.38
2022-11-30T05:52:13.235Z,33.17
2022-11-30T05:54:39.647Z,34.83
2022-11-30T05:57:06.060Z,33.72
2022-11-30T05:59:32.618Z,34.40
2022-11-30T06:01:59.173Z,31.20
2022-11-30T06:04:25.944Z,35.05
2022-11-30T06:06:52.314Z,37.92
2022-11-30T06:09:18.812Z,34.92
2022-11-30T06:11:45.124Z,36.10
2022-11-30T06:14:11.668Z,37.40
2022-11-30T06:16:41.180Z,35.38
2022-11-30T06:19:07.722Z,36.95
2022-11-30T06:21:35.579Z,38.08
2022-11-30T06:24:02.113Z,41.38
2022-11-30T06:26:28.539Z,37.88
2022-11-30T06:28:54.918Z,35.50
2022-11-30T06:31:21.750Z,34.30
2022-11-30T06:33:48.924Z,41.55
2022-11-30T06:36:21.471Z,41.58
2022-11-30T06:38:47.891Z,35.78
2022-11-30T06:41:14.307Z,42.53
2022-11-30T06:43:40.907Z,42.80
2022-11-30T06:46:07.856Z,39.20
2022-11-30T06:48:35.251Z,45.05
2022-11-30T06:51:04.884Z,41.13
2022-11-30T06:53:31.832Z,40.20
2022-11-30T06:55:58.207Z,41.28
2022-11-30T06:58:24.577Z,44.78
2022-11-30T07:00:50.974Z,38.38
2022-11-30T07:03:17.477Z,43.03
2022-11-30T07:05:46.155Z,39.00
2022-11-30T07:08:15.472Z,43.80
2022-11-30T07:10:46.271Z,44.78
2022-11-30T07:13:14.512Z,45.15
2022-11-30T07:15:42.287Z,46.80
2022-11-30T07:18:09.503Z,49.10
2022-11-30T07:20:37.532Z,46.63
2022-11-30T07:23:04.414Z,42.08
2022-11-30T07:25:30.853Z,47.40
2022-11-30T07:27:57.557Z,44.05
2022-11-30T07:30:24.029Z,45.33
2022-11-30T07:32:50.442Z,44.78
2022-11-30T07:35:16.930Z,47.03
2022-11-30T07:37:43.341Z,43.88
2022-11-30T07:40:10.189Z,44.03
2022-11-30T07:42:36.685Z,44.08
2022-11-30T07:45:03.321Z,43.88
2022-11-30T07:47:29.964Z,46.55
2022-11-30T07:49:56.425Z,44.85
2022-11-30T07:52:24.561Z,44.83
2022-11-30T07:54:51.071Z,40.95
2022-11-30T07:57:17.619Z,39.70
2022-11-30T07:59:44.060Z,41.20
2022-11-30T08:02:11.716Z,39.80
2022-11-30T08:04:38.517Z,37.72
2022-11-30T08:07:05.232Z,35.47
2022-11-30T08:09:31.935Z,43.05
2022-11-30T08:11:58.589Z,44.08
2022-11-30T08:14:25.016Z,42.85
2022-11-30T08:16:51.572Z,48.40
2022-11-30T08:19:18.214Z,47.92
2022-11-30T08:21:44.588Z,44.45
2022-11-30T08:24:12.333Z,42.85
2022-11-30T08:26:38.916Z,44.83
2022-11-30T08:29:05.334Z,44.13
2022-11-30T08:31:34.716Z,36.85
2022-11-30T08:34:07.238Z,37.67
2022-11-30T08:36:34.637Z,37.15
2022-11-30T08:39:02.731Z,37.78
2022-11-30T08:41:29.201Z,36.05
2022-11-30T08:43:55.661Z,37.35
2022-11-30T08:49:26.055Z,34.17
2022-11-30T08:54:43.833Z,34.65
2022-11-30T08:57:10.702Z,36.22
2022-11-30T08:59:37.402Z,33.03
2022-11-30T09:02:04.142Z,31.30
2022-11-30T09:04:30.573Z,33.25
2022-11-30T09:06:57.030Z,34.20
2022-11-30T09:09:23.374Z,37.47
2022-11-30T09:11:50.016Z,31.63
2022-11-30T09:14:16.707Z,29.83
2022-11-30T09:16:43.329Z,30.05
2022-11-30T09:19:09.966Z,31.48
2022-11-30T09:21:36.519Z,36.58
2022-11-30T09:24:03.223Z,31.65
2022-11-30T09:26:29.681Z,28.55
2022-11-30T09:28:56.136Z,32.20
2022-11-30T09:31:24.476Z,30.67
2022-11-30T09:33:51.961Z,31.40
2022-11-30T09:36:21.389Z,35.85
2022-11-30T09:38:48.718Z,31.00
2022-11-30T09:41:42.545Z,29.25
2022-11-30T09:44:30.327Z,26.88
2022-11-30T09:47:10.456Z,27.80
2022-11-30T09:49:44.507Z,23.58
2022-11-30T09:52:17.341Z,28.85
2022-11-30T09:54:45.746Z,24.85
2022-11-30T09:57:31.336Z,30.30
2022-11-30T09:59:59.871Z,30.85
2022-11-30T10:02:30.263Z,24.27
2022-11-30T10:04:57.862Z,27.98
2022-11-30T10:07:33.157Z,23.52
2022-11-30T10:10:33.702Z,20.63
2022-11-30T10:13:24.518Z,24.48
2022-11-30T10:16:11.245Z,22.15
2022-11-30T10:19:03.573Z,24.67
2022-11-30T10:21:49.920Z,25.05
2022-11-30T10:24:37.848Z,24.50
2022-11-30T10:27:18.510Z,24.55
2022-11-30T10:29:44.960Z,26.33
2022-11-30T10:32:20.709Z,25.75
2022-11-30T10:34:53.030Z,26.20
2022-11-30T10:37:29.807Z,19.85
2022-11-30T10:40:02.922Z,19.52
2022-11-30T10:42:55.629Z,18.75
2022-11-30T10:45:24.159Z,19.83
2022-11-30T10:48:00.524Z,22.30
2022-11-30T10:50:29.242Z,17.73
2022-11-30T10:52:58.527Z,21.27
2022-11-30T10:55:28.459Z,17.33
2022-11-30T10:58:02.513Z,18.57
2022-11-30T11:00:29.010Z,17.65
2022-11-30T11:02:55.709Z,18.48
2022-11-30T11:05:27.855Z,18.50
2022-11-30T11:08:07.211Z,20.25
2022-11-30T11:10:37.214Z,20.25
2022-11-30T11:13:04.104Z,17.92
2022-11-30T11:15:34.793Z,17.80
2022-11-30T11:18:16.704Z,19.52
2022-11-30T11:20:43.809Z,21.50
2022-11-30T11:23:37.300Z,16.45
2022-11-30T11:26:06.279Z,17.50
2022-11-30T11:28:35.875Z,17.27
2022-11-30T11:31:17.042Z,17.00
2022-11-30T11:33:54.249Z,18.65
2022-11-30T11:36:29.679Z,19.52
2022-11-30T11:38:57.253Z,19.63
2022-11-30T11:41:35.487Z,19.45
2022-11-30T11:44:08.068Z,16.55
2022-11-30T11:46:37.299Z,19.77
2022-11-30T11:49:06.955Z,17.05
2022-11-30T11:51:36.692Z,16.02
2022-11-30T11:54:22.581Z,18.42
2022-11-30T11:56:49.648Z,18.55
2022-11-30T11:59:32.284Z,17.95
2022-11-30T12:02:09.746Z,17.73
2022-11-30T12:04:56.715Z,17.73
2022-11-30T12:07:49.073Z,20.90
2022-11-30T12:10:52.229Z,21.73
2022-11-30T12:13:32.828Z,21.00
2022-11-30T12:16:36.862Z,19.88
2022-11-30T12:19:20.562Z,22.27
2022-11-30T12:22:05.224Z,21.15
2022-11-30T12:24:47.896Z,21.65
2022-11-30T12:27:17.408Z,22.10
2022-11-30T12:30:12.180Z,22.65
2022-11-30T12:33:16.483Z,26.48
2022-11-30T12:35:51.820Z,23.30
2022-11-30T12:38:32.027Z,21.05
2022-11-30T12:41:18.937Z,22.48
2022-11-30T12:44:00.704Z,22.15
2022-11-30T12:46:45.983Z,22.83
2022-11-30T12:49:20.809Z,19.80
2022-11-30T12:51:53.468Z,24.15
2022-11-30T12:54:41.327Z,22.77
2022-11-30T12:57:39.686Z,23.23
2022-11-30T13:00:19.931Z,20.73
2022-11-30T13:03:02.001Z,20.98
2022-11-30T13:05:54.710Z,20.70
2022-11-30T13:08:31.870Z,22.33
2022-11-30T13:11:08.354Z,24.48
2022-11-30T13:13:36.511Z,21.05
2022-11-30T13:16:07.996Z,23.70
2022-11-30T13:18:34.931Z,25.00
2022-11-30T13:21:16.972Z,22.38
2022-11-30T13:24:05.780Z,28.88
2022-11-30T13:26:54.480Z,23.63
2022-11-30T13:29:39.358Z,24.85
2022-11-30T13:32:27.942Z,26.02
2022-11-30T13:35:29.181Z,22.13
2022-11-30T13:41:04.876Z,27.15
2022-11-30T13:43:36.793Z,26.50
2022-11-30T13:46:14.474Z,24.20
2022-11-30T13:48:43.332Z,23.65
2022-11-30T13:51:10.159Z,24.95
2022-11-30T13:53:38.521Z,25.90
2022-11-30T13:56:18.412Z,23.30
2022-11-30T13:59:32.657Z,25.63
2022-11-30T14:02:33.268Z,24.50
2022-11-30T14:05:32.226Z,26.17
2022-11-30T14:08:01.621Z,22.92
2022-11-30T14:10:43.590Z,25.80
2022-11-30T14:13:09.896Z,25.90
2022-11-30T14:15:39.208Z,27.48
2022-11-30T14:18:08.696Z,24.33
2022-11-30T14:20:53.588Z,23.20
2022-11-30T14:23:47.346Z,28.15
2022-11-30T14:26:16.284Z,23.85
2022-11-30T14:28:50.196Z,25.90
2022-11-30T14:31:21.315Z,25.58
2022-11-30T14:34:08.841Z,26.08
2022-11-30T14:36:41.461Z,26.35
2022-11-30T14:39:33.134Z,29.10
2022-11-30T14:42:00.943Z,25.48
2022-11-30T14:44:28.238Z,27.88
2022-11-30T14:46:54.948Z,27.23
2022-11-30T14:49:23.619Z,23.27
2022-11-30T14:52:05.295Z,24.25
2022-11-30T14:54:42.312Z,21.25
2022-11-30T14:57:20.718Z,23.20
2022-11-30T14:59:52.528Z,21.50
2022-11-30T15:02:31.321Z,18.33
2022-11-30T15:04:59.060Z,21.90
2022-11-30T15:07:27.618Z,19.55
2022-11-30T15:10:11.859Z,26.70
2022-11-30T15:12:40.579Z,22.48
2022-11-30T15:15:13.109Z,18.42
2022-11-30T15:17:47.914Z,21.85
2022-11-30T15:20:49.919Z,21.25
2022-11-30T15:23:16.677Z,21.10
2022-11-30T15:25:47.664Z,21.05
2022-11-30T15:28:27.963Z,20.38
2022-11-30T15:30:58.619Z,15.60
2022-11-30T15:33:33.824Z,14.38
2022-11-30T15:36:32.031Z,13.48
2022-11-30T15:38:50.554Z,10.60
2022-11-30T15:41:22.324Z,10.80
2022-11-30T15:43:54.556Z,10.15
2022-11-30T15:47:13.427Z,8.20
2022-11-30T15:49:39.814Z,5.72
2022-11-30T15:52:17.869Z,10.40
2022-11-30T15:54:47.036Z,10.98
2022-11-30T15:57:14.498Z,7.18
2022-11-30T15:59:40.841Z,7.85
2022-11-30T16:02:25.180Z,7.90
2022-11-30T16:04:57.454Z,7.20
2022-11-30T16:07:27.409Z,7.30
2022-11-30T16:10:06.995Z,6.07
2022-11-30T16:12:33.679Z,7.20
2022-11-30T16:15:00.227Z,7.13
2022-11-30T16:17:26.552Z,7.68
2022-11-30T16:19:52.904Z,7.05
2022-11-30T16:22:19.372Z,6.07
2022-11-30T16:24:45.674Z,7.45
2022-11-30T16:27:16.614Z,7.93
2022-11-30T16:32:14.912Z,8.55
2022-11-30T16:34:41.540Z,7.53
2022-11-30T16:37:11.623Z,6.57
2022-11-30T16:39:38.133Z,6.78
2022-11-30T16:42:04.452Z,5.78
2022-11-30T16:44:30.720Z,5.13
2022-11-30T16:46:57.171Z,6.10
2022-11-30T16:49:23.478Z,6.18
2022-11-30T16:51:49.808Z,6.00
2022-11-30T16:54:16.226Z,6.03
2022-11-30T16:56:42.976Z,6.63
2022-11-30T16:59:16.266Z,5.95
2022-11-30T17:01:46.865Z,9.65
2022-11-30T17:04:19.694Z,8.10
2022-11-30T17:06:50.158Z,7.32
2022-11-30T17:09:18.535Z,6.38
2022-11-30T17:11:46.590Z,6.13
2022-11-30T17:14:14.548Z,7.85
2022-11-30T17:16:41.283Z,6.95
2022-11-30T17:19:08.197Z,7.78
2022-11-30T17:21:36.901Z,9.00
2022-11-30T17:24:04.715Z,9.48
2022-11-30T17:26:31.257Z,8.52
2022-11-30T17:28:58.073Z,8.13
2022-11-30T17:31:24.728Z,6.60
2022-11-30T17:33:53.703Z,7.72
2022-11-30T17:36:20.890Z,9.07
2022-11-30T17:38:47.365Z,9.57
2022-11-30T17:41:19.108Z,9.05
2022-11-30T17:43:47.347Z,10.40
2022-11-30T17:46:15.614Z,11.95
2022-11-30T17:48:42.956Z,10.07
2022-11-30T17:51:10.197Z,8.95
2022-11-30T17:53:41.518Z,11.73
2022-11-30T17:56:10.564Z,11.20
2022-11-30T17:58:41.561Z,11.38
2022-11-30T18:01:28.189Z,12.98
2022-11-30T18:03:55.925Z,12.68
2022-11-30T18:06:22.743Z,12.07
2022-11-30T18:08:49.498Z,15.15
2022-11-30T18:11:22.260Z,14.77
2022-11-30T18:13:50.841Z,15.05
2022-11-30T18:16:20.653Z,13.25
2022-11-30T18:18:48.668Z,15.95
2022-11-30T18:21:17.895Z,17.65
2022-11-30T18:23:46.399Z,14.38
2022-11-30T18:26:16.985Z,15.23
2022-11-30T18:28:44.153Z,16.65
2022-11-30T18:31:10.648Z,19.80
2022-11-30T18:33:37.905Z,15.65
2022-11-30T18:36:05.611Z,17.45
2022-11-30T18:38:37.954Z,21.27
2022-11-30T18:41:06.346Z,15.07
2022-11-30T18:43:33.593Z,13.75
2022-11-30T18:46:08.301Z,14.88
2022-11-30T18:48:35.424Z,16.08
2022-11-30T18:51:12.800Z,13.95
2022-11-30T18:53:39.279Z,14.27
2022-11-30T18:56:15.090Z,14.07
2022-11-30T18:58:42.501Z,11.05
2022-11-30T19:01:12.503Z,15.23
2022-11-30T19:03:39.751Z,15.30
2022-11-30T19:06:08.211Z,17.40
2022-11-30T19:08:35.250Z,15.65
2022-11-30T19:11:05.503Z,14.52
2022-11-30T19:13:32.300Z,15.82
2022-11-30T19:16:03.899Z,18.38
2022-11-30T19:18:30.318Z,14.45
2022-11-30T19:20:57.186Z,14.65
2022-11-30T19:23:24.032Z,17.05
2022-11-30T19:25:50.612Z,17.60
2022-11-30T19:28:17.948Z,17.42
2022-11-30T19:30:44.377Z,15.50
2022-11-30T19:33:10.813Z,18.38
2022-11-30T19:35:37.365Z,16.42
2022-11-30T19:38:03.679Z,17.33
2022-11-30T19:40:30.443Z,21.73
2022-11-30T19:42:56.868Z,16.85
2022-11-30T19:45:23.833Z,17.83
2022-11-30T19:47:50.381Z,19.60
2022-11-30T19:50:16.729Z,18.75
2022-11-30T19:52:43.130Z,19.05
2022-11-30T19:55:09.928Z,23.98
2022-11-30T19:57:36.874Z,19.83
2022-11-30T20:00:05.722Z,21.92
2022-11-30T20:02:33.547Z,19.92
2022-11-30T20:05:00.168Z,19.10
2022-11-30T20:07:27.241Z,17.02
2022-11-30T20:09:53.855Z,21.00
2022-11-30T20:12:20.625Z,16.02
2022-11-30T20:14:47.338Z,18.48
2022-11-30T20:17:14.002Z,18.00
2022-11-30T20:19:40.410Z,19.92
2022-11-30T20:22:06.841Z,16.40
2022-11-30T20:24:33.335Z,21.88
2022-11-30T20:26:59.718Z,21.27
2022-11-30T20:29:26.043Z,20.23
2022-11-30T20:31:52.402Z,21.35
2022-11-30T20:34:18.996Z,21.40
2022-11-30T20:36:45.500Z,19.73
2022-11-30T20:39:12.106Z,17.23
2022-11-30T20:41:38.668Z,21.58
2022-11-30T20:44:05.616Z,17.85
2022-11-30T20:46:34.472Z,18.45
2022-11-30T20:49:02.041Z,21.65
2022-11-30T20:51:33.662Z,19.85
2022-11-30T20:54:02.376Z,19.70
2022-11-30T20:56:29.071Z,19.52
2022-11-30T20:58:55.511Z,17.85
2022-11-30T21:01:22.882Z,22.02
2022-11-30T21:03:49.763Z,20.25
2022-11-30T21:06:16.435Z,23.45
2022-11-30T21:08:43.476Z,19.13
2022-11-30T21:11:13.363Z,22.80
2022-11-30T21:13:41.682Z,22.73
2022-11-30T21:16:08.601Z,21.10
2022-11-30T21:18:39.455Z,21.20
2022-11-30T21:21:30.834Z,22.58
2022-11-30T21:23:59.631Z,24.57
2022-11-30T21:26:32.169Z,19.97
2022-11-30T21:29:02.159Z,23.00
2022-11-30T21:31:29.800Z,21.13
2022-11-30T21:33:56.600Z,25.55
2022-11-30T21:36:23.282Z,24.25
2022-11-30T21:39:06.117Z,24.25
2022-11-30T21:41:34.671Z,22.08
2022-11-30T21:44:01.173Z,22.20
2022-11-30T21:46:27.961Z,21.37
2022-11-30T21:48:54.369Z,26.50
2022-11-30T21:51:24.378Z,21.92
2022-11-30T21:53:56.228Z,23.73
2022-11-30T21:56:28.634Z,24.02
2022-11-30T21:58:56.185Z,25.50
2022-11-30T22:01:27.009Z,23.80
2022-11-30T22:06:20.514Z,21.60
2022-11-30T22:08:46.929Z,22.85
2022-11-30T22:11:16.930Z,24.25
2022-11-30T22:13:44.502Z,24.50
2022-11-30T22:16:15.943Z,28.38
2022-11-30T22:18:43.931Z,24.92
2022-11-30T22:21:13.875Z,22.52
2022-11-30T22:23:43.715Z,27.20
2022-11-30T22:26:18.512Z,23.63
2022-11-30T22:28:50.215Z,27.00
2022-11-30T22:31:20.000Z,24.35
2022-11-30T22:33:46.810Z,21.40
2022-11-30T22:36:15.428Z,24.85
2022-11-30T22:38:42.519Z,25.30
2022-11-30T22:41:14.532Z,23.92
2022-11-30T22:43:42.292Z,26.10
2022-11-30T22:46:12.327Z,25.10
2022-11-30T22:48:39.437Z,27.50
2022-11-30T22:51:15.792Z,28.33
2022-11-30T22:53:42.722Z,27.15
2022-11-30T22:56:14.542Z,24.65
2022-11-30T22:58:41.941Z,26.40
2022-11-30T23:01:10.850Z,27.03
2022-11-30T23:03:38.049Z,27.98
2022-11-30T23:06:05.044Z,25.92
2022-11-30T23:08:32.221Z,26.05
2022-11-30T23:11:04.602Z,28.70
2022-11-30T23:13:31.286Z,29.38
2022-11-30T23:15:58.238Z,27.00
2022-11-30T23:18:24.996Z,31.25
2022-11-30T23:20:51.425Z,28.20
2022-11-30T23:23:17.793Z,31.45
2022-11-30T23:25:44.158Z,30.05
2022-11-30T23:28:10.833Z,26.90
2022-11-30T23:30:37.221Z,34.10
2022-11-30T23:33:03.890Z,28.92
2022-11-30T23:35:30.192Z,31.63
2022-11-30T23:37:56.820Z,27.70
2022-11-30T23:40:23.401Z,31.35
2022-11-30T23:42:49.764Z,30.10
2022-11-30T23:45:16.438Z,27.65
2022-11-30T23:47:42.899Z,28.38
2022-11-30T23:50:09.790Z,35.53
2022-11-30T23:52:36.236Z,31.55
2022-11-30T23:55:02.538Z,29.33
2022-11-30T23:57:28.864Z,28.55
2022-11-30T23:59:55.265Z,32.33
